Time;durP1;ratioP1;P1;durP2;ratioP2;P2;SDS_P1;SDS_P2;PMS_P1;PMS_P2;Temp;Humidity;BMP_temperature;BMP_pressure;BME280_temperature;BME280_humidity;BME280_pressure;Samples;Min_cycle;Max_cycle;Signal;HPM_P1;HPM_P2
2023/04/23 00:02:01;;;;;;;7.22;4.15;;;20.50;51.00;;;;;;5032544;28;20314;-79
2023/04/23 00:04:29;;;;;;;6.60;4.10;;;20.40;50.90;;;;;;5034740;28;20196;-79
2023/04/23 00:06:56;;;;;;;7.47;4.20;;;20.40;50.90;;;;;;5034850;28;20246;-79
2023/04/23 00:09:23;;;;;;;6.32;4.05;;;20.40;51.00;;;;;;5034628;28;20659;-80
2023/04/23 00:11:52;;;;;;;7.85;4.10;;;20.40;51.00;;;;;;5034167;28;20239;-79
2023/04/23 00:14:20;;;;;;;6.75;4.03;;;20.40;51.00;;;;;;5034924;28;20192;-79
2023/04/23 00:16:48;;;;;;;8.77;4.13;;;20.30;50.90;;;;;;5017416;28;20200;-79
2023/04/23 00:19:15;;;;;;;6.03;3.90;;;20.30;51.00;;;;;;5035300;28;20220;-79
2023/04/23 00:21:42;;;;;;;7.10;3.85;;;20.30;50.90;;;;;;5035133;28;20342;-79
2023/04/23 00:24:10;;;;;;;5.43;3.65;;;20.30;51.00;;;;;;5019952;28;20295;-79
2023/04/23 00:26:36;;;;;;;5.38;3.60;;;20.30;50.90;;;;;;5039092;28;20211;-79
2023/04/23 00:29:06;;;;;;;5.68;3.80;;;20.30;50.90;;;;;;5038525;28;20200;-79
2023/04/23 00:31:32;;;;;;;4.95;3.97;;;20.30;51.00;;;;;;5038846;28;20273;-79
2023/04/23 00:34:00;;;;;;;4.47;3.30;;;20.20;50.90;;;;;;5038842;28;20246;-79
2023/04/23 00:36:27;;;;;;;5.45;3.80;;;20.20;50.90;;;;;;5038101;28;20199;-79
2023/04/23 00:38:54;;;;;;;6.15;3.90;;;20.20;51.10;;;;;;5036846;28;20215;-79
2023/04/23 00:41:21;;;;;;;6.45;3.42;;;20.20;51.00;;;;;;5037472;28;20215;-79
2023/04/23 00:43:51;;;;;;;5.80;4.00;;;20.20;51.10;;;;;;5038483;28;20200;-79
2023/04/23 00:46:19;;;;;;;4.80;3.65;;;20.20;51.10;;;;;;5035639;28;20188;-79
2023/04/23 00:48:47;;;;;;;6.30;3.25;;;20.20;51.10;;;;;;5036296;28;20242;-80
2023/04/23 00:51:15;;;;;;;5.10;3.35;;;20.20;51.20;;;;;;5020321;28;20212;-80
2023/04/23 00:53:43;;;;;;;5.07;3.33;;;20.20;51.10;;;;;;5036295;28;20259;-80
2023/04/23 00:56:10;;;;;;;4.20;3.10;;;20.20;51.20;;;;;;5036057;28;20561;-79
2023/04/23 00:58:37;;;;;;;5.65;3.55;;;20.10;51.20;;;;;;5036194;28;20204;-79
2023/04/23 01:01:04;;;;;;;7.32;3.20;;;20.10;51.20;;;;;;5036310;28;20709;-79
2023/04/23 01:03:33;;;;;;;7.85;3.80;;;20.10;51.20;;;;;;5036523;28;20234;-79
2023/04/23 01:06:00;;;;;;;4.93;3.45;;;20.10;51.30;;;;;;5037758;28;20626;-79
2023/04/23 01:08:27;;;;;;;5.53;3.13;;;20.10;51.40;;;;;;5038116;28;20200;-79
2023/04/23 01:10:55;;;;;;;5.28;3.40;;;20.10;51.40;;;;;;5036238;28;20574;-79
2023/04/23 01:13:25;;;;;;;5.30;3.75;;;20.10;51.40;;;;;;5037332;28;20200;-79
2023/04/23 01:15:52;;;;;;;5.35;3.42;;;20.10;51.50;;;;;;5021870;28;20211;-79
2023/04/23 01:18:20;;;;;;;6.63;3.20;;;20.10;51.50;;;;;;5036339;28;20199;-79
2023/04/23 01:20:51;;;;;;;4.28;3.22;;;20.10;51.60;;;;;;5036216;28;20213;-79
2023/04/23 01:23:20;;;;;;;4.15;3.20;;;20.00;51.60;;;;;;5036657;28;20196;-79
2023/04/23 01:25:47;;;;;;;3.42;3.13;;;20.00;51.60;;;;;;5037069;28;20201;-80
2023/04/23 01:28:15;;;;;;;4.53;3.15;;;20.00;51.60;;;;;;5036381;28;20196;-80
2023/04/23 01:30:42;;;;;;;6.05;3.25;;;20.00;51.60;;;;;;5036481;28;20208;-80
2023/04/23 01:33:10;;;;;;;4.28;3.05;;;20.00;51.60;;;;;;5036343;28;20662;-80
2023/04/23 01:35:37;;;;;;;4.60;3.00;;;20.00;51.70;;;;;;5036984;28;20196;-80
2023/04/23 01:38:05;;;;;;;3.50;2.88;;;20.00;51.60;;;;;;5020999;28;20624;-80
2023/04/23 01:40:34;;;;;;;4.55;3.08;;;20.00;51.70;;;;;;5019509;28;20224;-80
2023/04/23 01:43:01;;;;;;;4.35;2.80;;;19.90;51.60;;;;;;5034541;28;20254;-80
2023/04/23 01:45:28;;;;;;;4.65;2.95;;;19.90;51.60;;;;;;5034509;28;20216;-80
2023/04/23 01:47:55;;;;;;;3.72;2.88;;;19.90;51.60;;;;;;5035271;28;20291;-80
2023/04/23 01:50:25;;;;;;;4.07;3.05;;;19.90;51.70;;;;;;5034904;28;20584;-80
2023/04/23 01:52:52;;;;;;;4.00;2.83;;;19.90;51.70;;;;;;5035305;28;20601;-80
2023/04/23 01:55:19;;;;;;;4.15;2.65;;;19.90;51.80;;;;;;5035292;28;20200;-80
2023/04/23 01:57:48;;;;;;;4.10;2.80;;;19.90;51.80;;;;;;5035151;28;20199;-80
2023/04/23 02:00:16;;;;;;;4.68;2.88;;;19.90;51.80;;;;;;5035435;28;20549;-80
2023/04/23 02:02:44;;;;;;;4.82;3.20;;;19.90;51.80;;;;;;5018723;28;20310;-80
2023/04/23 02:05:12;;;;;;;5.43;2.95;;;19.90;51.90;;;;;;5035753;28;20200;-80
2023/04/23 02:07:39;;;;;;;4.07;2.72;;;19.90;51.90;;;;;;5034062;28;20196;-80
2023/04/23 02:10:08;;;;;;;6.45;2.92;;;19.90;51.90;;;;;;5017747;28;20657;-80
2023/04/23 02:12:36;;;;;;;3.70;2.67;;;19.90;51.90;;;;;;5033836;28;20196;-80
2023/04/23 02:15:07;;;;;;;3.70;2.55;;;19.80;51.80;;;;;;5033920;28;20203;-80
2023/04/23 02:17:34;;;;;;;3.45;2.67;;;19.80;51.80;;;;;;5033590;28;20200;-80
2023/04/23 02:20:01;;;;;;;3.65;2.60;;;19.80;51.90;;;;;;5033540;28;20227;-81
2023/04/23 02:22:28;;;;;;;4.55;2.70;;;19.80;51.90;;;;;;5034135;28;20216;-80
2023/04/23 02:24:55;;;;;;;3.67;2.88;;;19.80;51.90;;;;;;5017503;28;20665;-80
2023/04/23 02:27:23;;;;;;;4.22;2.80;;;19.80;51.90;;;;;;5033611;28;20200;-80
2023/04/23 02:29:50;;;;;;;2.80;2.40;;;19.80;52.00;;;;;;5033873;28;20243;-80
2023/04/23 02:32:18;;;;;;;3.30;2.30;;;19.80;52.00;;;;;;5033548;28;20195;-80
2023/04/23 02:34:46;;;;;;;4.53;2.75;;;19.80;52.00;;;;;;5034869;28;20192;-80
2023/04/23 02:37:12;;;;;;;3.25;2.83;;;19.80;52.00;;;;;;5033695;28;20200;-80
2023/04/23 02:39:40;;;;;;;2.80;2.40;;;19.80;52.00;;;;;;5033820;28;20612;-80
2023/04/23 02:42:07;;;;;;;4.85;2.65;;;19.80;52.10;;;;;;5033370;28;20227;-80
2023/04/23 02:44:34;;;;;;;3.20;2.60;;;19.70;52.00;;;;;;5033274;28;20211;-80
2023/04/23 02:47:01;;;;;;;3.17;2.38;;;19.70;52.00;;;;;;5032990;28;20275;-80
2023/04/23 02:49:30;;;;;;;4.07;2.70;;;19.70;52.00;;;;;;5033163;28;20681;-80
2023/04/23 02:51:57;;;;;;;3.25;2.42;;;19.70;52.00;;;;;;5033188;28;20235;-80
2023/04/23 02:54:25;;;;;;;3.35;2.45;;;19.70;52.10;;;;;;5032836;28;20192;-80
2023/04/23 02:56:52;;;;;;;3.15;2.38;;;19.70;52.10;;;;;;5033087;28;20238;-80
2023/04/23 02:59:19;;;;;;;3.00;2.70;;;19.70;52.20;;;;;;5032901;28;20191;-80
2023/04/23 03:01:46;;;;;;;2.53;2.33;;;19.70;52.10;;;;;;5032833;28;20917;-80
2023/04/23 03:04:14;;;;;;;3.60;2.58;;;19.70;52.20;;;;;;5033017;28;20196;-80
2023/04/23 03:06:43;;;;;;;2.63;2.15;;;19.70;52.20;;;;;;5033125;28;20200;-80
2023/04/23 03:09:10;;;;;;;3.90;2.60;;;19.70;52.10;;;;;;5032800;28;20196;-80
2023/04/23 03:11:37;;;;;;;5.22;2.80;;;19.70;52.20;;;;;;5016637;28;20262;-80
2023/04/23 03:14:04;;;;;;;3.17;2.40;;;19.70;52.20;;;;;;5017524;28;20650;-80
2023/04/23 03:16:32;;;;;;;3.65;2.60;;;19.70;52.10;;;;;;5034360;28;20193;-80
2023/04/23 03:18:59;;;;;;;2.85;2.40;;;19.60;52.10;;;;;;5033107;28;20192;-80
2023/04/23 03:21:26;;;;;;;2.53;2.33;;;19.60;52.10;;;;;;5032943;28;20216;-80
2023/04/23 03:23:55;;;;;;;3.30;2.53;;;19.60;52.10;;;;;;5016607;28;20310;-80
2023/04/23 03:26:22;;;;;;;2.40;2.17;;;19.70;52.20;;;;;;5032950;28;20210;-80
2023/04/23 03:28:50;;;;;;;2.92;2.40;;;19.70;52.20;;;;;;5032666;28;20279;-80
2023/04/23 03:31:17;;;;;;;2.65;2.40;;;19.70;52.10;;;;;;5016345;28;20250;-80
2023/04/23 03:33:45;;;;;;;2.97;2.22;;;19.70;52.00;;;;;;5032983;28;20220;-80
2023/04/23 03:36:12;;;;;;;3.25;2.70;;;19.70;51.90;;;;;;5032380;28;20200;-80
2023/04/23 03:38:39;;;;;;;3.45;2.35;;;19.80;51.90;;;;;;5017152;28;20302;-80
2023/04/23 03:41:08;;;;;;;2.90;2.40;;;19.80;51.80;;;;;;5033108;28;20273;-80
2023/04/23 03:43:35;;;;;;;3.42;2.50;;;19.90;51.70;;;;;;5032403;28;20196;-80
2023/04/23 03:46:03;;;;;;;4.07;2.38;;;19.90;51.60;;;;;;5033126;28;20627;-80
2023/04/23 03:48:33;;;;;;;3.35;2.85;;;19.90;51.50;;;;;;5032756;28;20203;-80
2023/04/23 03:51:04;;;;;;;3.13;2.38;;;20.00;51.30;;;;;;5032835;28;20239;-80
2023/04/23 03:53:50;;;;;;;3.47;2.20;;;20.00;51.10;;;;;;5033568;28;20214;-80
2023/04/23 03:56:37;;;;;;;2.70;2.50;;;20.10;51.10;;;;;;5033877;28;20183;-80
2023/04/23 03:59:16;;;;;;;2.72;2.47;;;20.10;51.00;;;;;;5034412;28;20192;-80
2023/04/23 04:01:47;;;;;;;3.38;2.30;;;20.10;50.90;;;;;;5036500;28;20262;-80
2023/04/23 04:04:14;;;;;;;2.75;2.28;;;20.20;50.90;;;;;;5036602;28;20200;-80
2023/04/23 04:06:44;;;;;;;2.90;2.53;;;20.20;50.80;;;;;;5037026;28;20196;-80
2023/04/23 04:09:11;;;;;;;2.78;2.20;;;20.10;50.70;;;;;;5036571;28;20291;-80
2023/04/23 04:11:40;;;;;;;2.58;2.17;;;20.20;50.80;;;;;;5036208;28;20296;-80
2023/04/23 04:14:09;;;;;;;2.33;2.10;;;20.20;50.70;;;;;;5021074;28;20200;-80
2023/04/23 04:16:36;;;;;;;4.22;2.15;;;20.30;50.70;;;;;;5036558;28;20211;-80
2023/04/23 04:19:03;;;;;;;4.10;2.30;;;20.20;50.60;;;;;;5035967;28;20197;-80
2023/04/23 04:21:31;;;;;;;2.15;1.95;;;20.20;50.70;;;;;;5036064;28;20216;-80
2023/04/23 04:24:00;;;;;;;2.42;2.20;;;20.20;50.90;;;;;;5037696;28;20566;-80
2023/04/23 04:26:28;;;;;;;2.28;2.08;;;20.10;50.90;;;;;;5036398;28;20195;-80
2023/04/23 04:28:57;;;;;;;2.22;2.03;;;20.10;50.90;;;;;;5036036;28;20246;-80
2023/04/23 04:31:24;;;;;;;2.55;2.15;;;20.10;51.00;;;;;;5035876;28;20242;-80
2023/04/23 04:33:51;;;;;;;2.22;2.00;;;20.00;50.90;;;;;;5035761;28;20218;-80
2023/04/23 04:36:18;;;;;;;2.30;2.00;;;20.00;51.10;;;;;;5037168;28;20197;-80
2023/04/23 04:38:46;;;;;;;4.28;2.28;;;20.00;50.90;;;;;;5036394;28;20250;-80
2023/04/23 04:41:13;;;;;;;3.35;2.30;;;20.10;50.90;;;;;;5035766;28;20215;-80
2023/04/23 04:43:42;;;;;;;2.25;2.05;;;20.10;50.90;;;;;;5035595;28;20196;-80
2023/04/23 04:46:10;;;;;;;2.15;1.95;;;20.10;50.70;;;;;;5037840;28;20188;-80
2023/04/23 04:48:38;;;;;;;3.17;2.15;;;20.10;50.70;;;;;;5036577;28;20208;-80
2023/04/23 04:51:05;;;;;;;2.30;1.98;;;20.10;50.60;;;;;;5036324;28;20220;-80
2023/04/23 04:53:34;;;;;;;3.53;2.35;;;20.10;50.50;;;;;;5036127;28;20555;-80
2023/04/23 04:56:01;;;;;;;2.45;1.92;;;20.10;50.50;;;;;;5036070;28;20317;-80
2023/04/23 04:58:28;;;;;;;2.67;2.20;;;20.10;50.40;;;;;;5035625;28;20634;-80
2023/04/23 05:00:56;;;;;;;2.25;2.03;;;20.10;50.30;;;;;;5035365;28;20273;-80
2023/04/23 05:03:24;;;;;;;2.05;1.90;;;20.10;50.30;;;;;;5035762;28;20273;-80
2023/04/23 05:05:53;;;;;;;2.10;1.90;;;20.20;50.40;;;;;;5036108;28;20204;-80
2023/04/23 05:08:20;;;;;;;2.30;2.08;;;20.10;50.30;;;;;;5035527;28;20350;-80
2023/04/23 05:10:49;;;;;;;2.67;2.08;;;20.10;50.30;;;;;;5035044;28;20226;-80
2023/04/23 05:13:16;;;;;;;2.38;2.08;;;20.10;50.30;;;;;;5036858;28;20184;-80
2023/04/23 05:15:43;;;;;;;2.13;1.92;;;20.00;50.40;;;;;;5035480;28;20200;-80
2023/04/23 05:18:11;;;;;;;2.45;2.20;;;20.00;50.50;;;;;;5035614;28;20234;-80
2023/04/23 05:20:39;;;;;;;2.30;2.03;;;20.00;50.50;;;;;;5035662;28;20226;-80
2023/04/23 05:23:07;;;;;;;2.40;1.80;;;20.00;50.70;;;;;;5035550;28;20637;-81
2023/04/23 05:25:34;;;;;;;2.17;1.95;;;20.00;50.80;;;;;;5035698;28;20192;-81
2023/04/23 05:28:01;;;;;;;2.90;1.90;;;20.00;50.70;;;;;;5035460;28;20200;-81
2023/04/23 05:30:29;;;;;;;2.20;2.00;;;20.00;50.70;;;;;;5035767;28;20216;-81
2023/04/23 05:32:56;;;;;;;2.30;2.10;;;20.10;50.70;;;;;;5035691;28;20200;-81
2023/04/23 05:35:23;;;;;;;2.58;1.88;;;20.20;50.50;;;;;;5035089;28;20228;-80
2023/04/23 05:37:51;;;;;;;2.00;1.80;;;20.20;50.50;;;;;;5034871;28;20250;-80
2023/04/23 05:40:18;;;;;;;2.47;2.05;;;20.20;50.50;;;;;;5035585;28;20212;-80
2023/04/23 05:42:46;;;;;;;2.65;2.00;;;20.20;50.50;;;;;;5034441;28;20216;-80
2023/04/23 05:45:12;;;;;;;2.15;1.95;;;20.30;50.50;;;;;;5034204;28;20274;-80
2023/04/23 05:47:40;;;;;;;2.38;2.00;;;20.30;50.50;;;;;;5034796;28;20196;-80
2023/04/23 05:50:07;;;;;;;2.20;2.00;;;20.30;50.30;;;;;;5034967;28;20266;-80
2023/04/23 05:52:36;;;;;;;3.08;2.00;;;20.30;50.30;;;;;;5034907;28;20188;-80
2023/04/23 05:55:05;;;;;;;2.13;1.88;;;20.30;50.30;;;;;;5034686;28;20232;-80
2023/04/23 05:57:33;;;;;;;2.25;1.90;;;20.40;50.40;;;;;;5034930;28;20199;-81
2023/04/23 06:00:00;;;;;;;2.72;1.90;;;20.40;50.20;;;;;;5034591;28;20320;-81
2023/04/23 06:02:28;;;;;;;2.13;1.90;;;20.50;50.10;;;;;;5034580;28;20570;-81
2023/04/23 06:04:55;;;;;;;1.88;1.70;;;20.60;50.00;;;;;;5034202;28;20195;-81
2023/04/23 06:07:22;;;;;;;2.20;2.00;;;20.60;50.10;;;;;;5034696;28;20192;-81
2023/04/23 06:09:49;;;;;;;2.33;1.80;;;20.70;50.00;;;;;;5034706;28;20553;-81
2023/04/23 06:12:18;;;;;;;1.73;1.63;;;20.80;49.90;;;;;;5033968;28;20565;-81
2023/04/23 06:14:45;;;;;;;1.73;1.60;;;21.00;49.50;;;;;;5034008;28;20192;-81
2023/04/23 06:17:12;;;;;;;2.20;2.00;;;21.10;49.20;;;;;;5033788;28;20257;-81
2023/04/23 06:19:39;;;;;;;2.10;1.90;;;21.20;49.00;;;;;;5034352;28;20637;-80
2023/04/23 06:22:07;;;;;;;2.00;1.60;;;21.20;48.80;;;;;;5032841;28;20224;-80
2023/04/23 06:24:34;;;;;;;1.77;1.67;;;21.20;48.90;;;;;;5033695;28;20250;-80
2023/04/23 06:27:01;;;;;;;2.42;1.80;;;21.20;48.80;;;;;;5033632;28;20200;-80
2023/04/23 06:29:32;;;;;;;1.67;1.58;;;21.10;48.80;;;;;;5034151;28;20238;-80
2023/04/23 06:32:03;;;;;;;2.55;1.88;;;21.10;49.00;;;;;;5033962;28;20175;-81
2023/04/23 06:34:31;;;;;;;1.90;1.80;;;21.00;49.10;;;;;;5033801;28;20235;-81
2023/04/23 06:36:58;;;;;;;1.50;1.40;;;21.00;49.70;;;;;;5033572;28;20446;-81
2023/04/23 06:39:25;;;;;;;1.63;1.52;;;20.90;49.10;;;;;;5017229;28;20288;-81
2023/04/23 06:41:52;;;;;;;1.90;1.80;;;21.00;49.00;;;;;;5034559;28;20702;-81
2023/04/23 06:44:34;;;;;;;4.75;1.60;;;21.00;48.90;;;;;;5033942;28;20201;-81
2023/04/23 06:47:03;;;;;;;1.67;1.58;;;21.00;48.90;;;;;;5033712;28;20224;-81
2023/04/23 06:49:30;;;;;;;1.70;1.60;;;21.00;49.10;;;;;;5033730;28;20605;-81
2023/04/23 06:51:57;;;;;;;1.52;1.42;;;21.00;49.10;;;;;;5033522;28;20215;-81
2023/04/23 06:54:24;;;;;;;2.00;1.58;;;21.00;48.90;;;;;;5035066;28;20204;-81
2023/04/23 06:56:51;;;;;;;1.80;1.70;;;21.10;48.90;;;;;;5033564;28;20196;-81
2023/04/23 06:59:19;;;;;;;1.60;1.50;;;21.20;48.70;;;;;;5034760;28;20220;-81
2023/04/23 07:01:51;;;;;;;1.50;1.40;;;21.30;48.40;;;;;;5033599;28;20334;-81
2023/04/23 07:04:18;;;;;;;1.83;1.55;;;21.50;48.40;;;;;;5035217;28;20247;-81
2023/04/23 07:06:44;;;;;;;1.70;1.60;;;21.70;48.00;;;;;;5034631;28;20200;-81
2023/04/23 07:09:12;;;;;;;1.58;1.48;;;21.90;47.50;;;;;;5036512;28;20281;-81
2023/04/23 07:11:39;;;;;;;1.50;1.40;;;21.90;47.90;;;;;;5035014;28;20223;-81
2023/04/23 07:14:06;;;;;;;2.60;1.67;;;22.00;47.30;;;;;;5034614;28;20228;-81
2023/04/23 07:16:33;;;;;;;1.98;1.40;;;22.00;47.30;;;;;;5033781;28;20734;-81
2023/04/23 07:19:02;;;;;;;1.85;1.60;;;22.00;47.10;;;;;;5033509;28;20192;-81
2023/04/23 07:21:29;;;;;;;1.70;1.50;;;22.10;46.90;;;;;;5035146;28;20289;-81
2023/04/23 07:23:56;;;;;;;1.40;1.30;;;22.20;46.90;;;;;;5034597;28;20214;-81
2023/04/23 07:26:24;;;;;;;1.70;1.60;;;22.30;46.60;;;;;;5033158;28;20270;-81
2023/04/23 07:28:51;;;;;;;1.60;1.50;;;22.50;46.20;;;;;;5033196;28;20204;-81
2023/04/23 07:31:19;;;;;;;1.60;1.50;;;22.60;45.90;;;;;;5016484;28;20219;-81
2023/04/23 07:33:46;;;;;;;1.88;1.40;;;22.70;45.70;;;;;;5034762;28;20196;-81
2023/04/23 07:36:15;;;;;;;1.83;1.63;;;22.80;45.60;;;;;;5037058;28;20238;-81
2023/04/23 07:38:42;;;;;;;1.60;1.50;;;22.90;45.40;;;;;;5037071;28;20192;-81
2023/04/23 07:41:09;;;;;;;1.80;1.55;;;23.00;45.30;;;;;;5036751;28;20207;-81
2023/04/23 07:43:36;;;;;;;1.70;1.60;;;22.90;45.20;;;;;;5036599;28;20226;-81
2023/04/23 07:46:03;;;;;;;1.80;1.70;;;22.80;45.30;;;;;;5036843;28;20254;-81
2023/04/23 07:48:31;;;;;;;1.73;1.63;;;22.80;45.30;;;;;;5036679;28;20622;-81
2023/04/23 07:50:58;;;;;;;1.58;1.48;;;22.70;45.40;;;;;;5036597;28;20698;-81
2023/04/23 07:53:27;;;;;;;2.03;1.42;;;22.60;45.40;;;;;;5020153;28;20253;-81
2023/04/23 07:55:54;;;;;;;1.75;1.65;;;22.60;45.50;;;;;;5037988;28;20188;-81
2023/04/23 07:58:22;;;;;;;1.67;1.58;;;22.60;45.40;;;;;;5036428;28;20223;-80
2023/04/23 08:00:49;;;;;;;1.98;1.75;;;22.70;45.30;;;;;;5036237;28;20216;-82
2023/04/23 08:03:17;;;;;;;1.80;1.58;;;22.80;45.10;;;;;;5036074;28;20589;-82
2023/04/23 08:05:44;;;;;;;1.92;1.58;;;22.90;45.10;;;;;;5036135;28;20570;-82
2023/04/23 08:08:12;;;;;;;1.60;1.50;;;22.90;44.90;;;;;;5035885;28;20650;-82
2023/04/23 08:10:40;;;;;;;1.70;1.60;;;22.90;45.00;;;;;;5036431;28;20215;-81
2023/04/23 08:13:08;;;;;;;1.85;1.63;;;22.90;45.00;;;;;;5037208;28;20197;-81
2023/04/23 08:15:35;;;;;;;3.25;1.80;;;22.90;45.10;;;;;;5036020;28;20218;-82
2023/04/23 08:18:02;;;;;;;1.70;1.60;;;22.90;45.30;;;;;;5037125;28;20200;-82
2023/04/23 08:20:38;;;;;;;2.00;1.90;;;22.80;45.50;;;;;;5020360;28;20231;-82
2023/04/23 08:23:05;;;;;;;2.17;1.90;;;22.80;45.40;;;;;;5036283;28;20294;-82
2023/04/23 08:25:33;;;;;;;1.80;1.70;;;22.90;45.80;;;;;;5036237;28;20192;-83
2023/04/23 08:28:02;;;;;;;1.67;1.58;;;23.00;46.20;;;;;;5036325;28;20200;-84
2023/04/23 08:30:29;;;;;;;1.45;1.35;;;23.10;45.70;;;;;;5036003;28;20246;-82
2023/04/23 08:32:56;;;;;;;2.85;1.70;;;23.10;45.70;;;;;;5036040;28;20192;-82
2023/04/23 08:35:23;;;;;;;6.30;1.70;;;23.10;46.10;;;;;;5035974;28;20196;-82
2023/04/23 08:37:50;;;;;;;164.70;51.58;;;23.10;46.80;;;;;;5035115;28;20468;-81
2023/04/23 08:40:17;;;;;;;97.85;29.33;;;23.10;46.30;;;;;;5036525;28;20310;-82
2023/04/23 08:42:47;;;;;;;186.73;56.60;;;23.20;45.70;;;;;;5035819;28;20196;-82
2023/04/23 08:45:16;;;;;;;176.18;53.80;;;23.30;46.80;;;;;;5034807;28;20265;-83
2023/04/23 08:47:44;;;;;;;136.55;45.80;;;23.50;47.00;;;;;;5019693;28;20254;-83
2023/04/23 08:50:12;;;;;;;147.98;47.83;;;23.60;46.40;;;;;;5035295;28;20286;-83
2023/04/23 08:52:41;;;;;;;139.02;44.30;;;23.70;46.60;;;;;;5035568;28;20295;-82
2023/04/23 08:55:10;;;;;;;120.63;40.88;;;23.80;46.20;;;;;;5035678;28;20208;-83
2023/04/23 08:57:38;;;;;;;121.65;42.05;;;23.80;46.10;;;;;;5035211;28;20200;-83
2023/04/23 09:00:07;;;;;;;107.20;38.58;;;23.90;46.60;;;;;;5034943;28;20590;-83
2023/04/23 09:02:48;;;;;;;106.10;37.10;;;24.00;46.30;;;;;;5018853;28;20195;-84
2023/04/23 09:05:15;;;;;;;94.72;34.28;;;24.00;46.20;;;;;;5036111;28;20690;-83
2023/04/23 09:07:42;;;;;;;103.57;35.05;;;24.00;46.00;;;;;;5035289;28;20203;-83
2023/04/23 09:10:11;;;;;;;84.25;32.05;;;24.00;46.30;;;;;;5034735;28;20306;-83
2023/04/23 09:12:39;;;;;;;91.65;32.22;;;24.00;46.40;;;;;;5034998;28;20258;-84
2023/04/23 09:15:09;;;;;;;80.47;29.98;;;24.00;46.60;;;;;;5035144;28;20196;-83
2023/04/23 09:17:39;;;;;;;82.95;31.95;;;24.10;46.10;;;;;;5034510;28;20441;-83
2023/04/23 09:20:08;;;;;;;76.28;28.92;;;24.20;46.10;;;;;;5036465;28;20232;-83
2023/04/23 09:22:39;;;;;;;71.90;28.10;;;24.30;45.80;;;;;;5034678;28;20200;-83
2023/04/23 09:25:07;;;;;;;74.03;27.23;;;24.30;45.20;;;;;;5042534;28;20212;-83
2023/04/23 09:27:35;;;;;;;73.85;25.40;;;24.30;44.80;;;;;;5035880;28;20231;-83
2023/04/23 09:30:06;;;;;;;69.80;25.17;;;24.30;45.10;;;;;;5040780;28;20216;-83
2023/04/23 09:32:33;;;;;;;64.88;24.38;;;24.30;45.30;;;;;;5035863;28;20203;-83
2023/04/23 09:35:04;;;;;;;63.95;24.45;;;24.40;45.30;;;;;;5034906;28;20212;-84
2023/04/23 09:37:32;;;;;;;59.38;22.58;;;24.50;44.80;;;;;;5035260;28;20218;-84
2023/04/23 09:39:59;;;;;;;59.30;23.33;;;24.70;44.70;;;;;;5034580;28;20759;-83
2023/04/23 09:42:27;;;;;;;56.38;22.58;;;24.90;44.30;;;;;;5034478;28;20280;-82
2023/04/23 09:44:56;;;;;;;49.92;20.95;;;25.10;43.60;;;;;;5034155;28;20247;-83
2023/04/23 09:47:24;;;;;;;57.45;22.27;;;25.50;43.40;;;;;;5035411;28;20282;-83
2023/04/23 09:49:51;;;;;;;51.80;20.80;;;25.80;42.90;;;;;;5035057;28;20200;-83
2023/04/23 09:52:21;;;;;;;47.00;19.25;;;25.90;42.50;;;;;;5018413;28;20207;-83
2023/04/23 09:54:48;;;;;;;46.85;19.65;;;26.00;42.40;;;;;;5034382;28;20188;-83
2023/04/23 09:57:16;;;;;;;47.00;18.95;;;26.00;42.50;;;;;;5016690;28;20204;-82
2023/04/23 09:59:43;;;;;;;46.30;18.65;;;25.90;42.70;;;;;;5033972;28;20286;-82
2023/04/23 10:02:10;;;;;;;46.53;17.88;;;26.10;42.50;;;;;;5034277;28;20204;-82
2023/04/23 10:04:38;;;;;;;43.65;17.33;;;26.30;41.40;;;;;;5034010;28;20340;-83
2023/04/23 10:07:07;;;;;;;47.78;17.30;;;26.30;41.30;;;;;;5033813;28;20693;-82
2023/04/23 10:09:38;;;;;;;39.17;16.77;;;26.30;42.00;;;;;;5034048;28;20313;-83
2023/04/23 10:12:06;;;;;;;40.45;16.10;;;26.30;41.70;;;;;;5034331;28;20199;-83
2023/04/23 10:14:33;;;;;;;43.90;17.15;;;26.30;41.30;;;;;;5034489;28;20196;-83
2023/04/23 10:17:01;;;;;;;41.75;17.05;;;26.20;41.80;;;;;;5034178;28;20264;-83
2023/04/23 10:19:29;;;;;;;40.38;16.25;;;26.10;42.10;;;;;;5034702;28;20203;-83
2023/04/23 10:21:59;;;;;;;39.13;14.98;;;26.00;42.00;;;;;;5034003;28;20709;-83
2023/04/23 10:24:29;;;;;;;36.42;14.80;;;25.90;42.30;;;;;;5034570;28;20211;-83
2023/04/23 10:26:59;;;;;;;40.83;15.13;;;25.70;42.50;;;;;;5034366;28;20196;-83
2023/04/23 10:29:27;;;;;;;35.40;14.98;;;25.60;42.80;;;;;;5034015;28;20318;-83
2023/04/23 10:31:55;;;;;;;35.85;14.82;;;25.40;43.20;;;;;;5034013;28;20228;-83
2023/04/23 10:34:22;;;;;;;35.30;14.65;;;25.30;43.50;;;;;;5035009;28;20510;-83
2023/04/23 10:36:50;;;;;;;37.28;13.77;;;25.20;43.70;;;;;;5037771;28;20211;-83
2023/04/23 10:39:17;;;;;;;37.10;14.18;;;25.10;43.80;;;;;;5018545;28;20192;-83
2023/04/23 10:41:44;;;;;;;34.40;13.80;;;25.10;43.90;;;;;;5034556;28;20224;-83
2023/04/23 10:44:15;;;;;;;33.33;13.18;;;25.00;44.10;;;;;;5032955;28;20227;-84
2023/04/23 10:46:51;;;;;;;32.85;13.32;;;25.00;44.10;;;;;;5035615;28;20196;-84
2023/04/23 10:49:40;;;;;;;29.80;12.52;;;25.00;44.20;;;;;;5035888;28;20187;-83
2023/04/23 10:52:09;;;;;;;29.20;12.73;;;25.00;44.20;;;;;;5034136;28;20196;-83
2023/04/23 10:54:36;;;;;;;29.50;12.57;;;24.90;44.20;;;;;;5034991;28;20196;-83
2023/04/23 10:57:07;;;;;;;33.42;12.57;;;25.00;44.30;;;;;;5035521;28;20196;-83
2023/04/23 10:59:39;;;;;;;28.55;11.38;;;25.00;44.30;;;;;;5034469;28;20299;-83
2023/04/23 11:02:09;;;;;;;28.05;12.55;;;24.90;44.30;;;;;;5035054;28;20216;-83
2023/04/23 11:04:37;;;;;;;23.38;11.02;;;24.90;44.30;;;;;;5034960;28;20571;-82
2023/04/23 11:07:05;;;;;;;28.23;11.05;;;24.90;44.40;;;;;;5034402;28;20200;-83
2023/04/23 11:09:43;;;;;;;28.65;11.00;;;24.90;44.40;;;;;;5034605;28;20267;-84
2023/04/23 11:12:14;;;;;;;26.98;10.73;;;24.80;44.40;;;;;;5034238;28;20249;-83
2023/04/23 11:14:47;;;;;;;22.65;10.85;;;24.80;45.00;;;;;;5017814;28;20231;-83
2023/04/23 11:17:14;;;;;;;20.92;10.40;;;24.80;44.60;;;;;;5018377;28;20196;-84
2023/04/23 11:19:58;;;;;;;24.90;11.00;;;24.70;44.60;;;;;;5034154;28;20234;-84
2023/04/23 11:22:25;;;;;;;22.40;9.98;;;24.70;44.70;;;;;;5034443;28;20226;-82
2023/04/23 11:24:53;;;;;;;20.77;9.45;;;24.60;44.70;;;;;;5035734;28;20220;-82
2023/04/23 11:27:20;;;;;;;24.05;9.75;;;24.60;44.90;;;;;;5034849;28;20257;-82
2023/04/23 11:29:48;;;;;;;23.30;9.95;;;24.60;44.90;;;;;;5034466;28;20204;-81
2023/04/23 11:32:16;;;;;;;20.55;9.57;;;24.50;44.90;;;;;;5033627;28;20199;-81
2023/04/23 11:34:44;;;;;;;24.33;9.57;;;24.50;44.90;;;;;;5033782;28;20266;-81
2023/04/23 11:37:11;;;;;;;21.77;9.48;;;24.50;45.00;;;;;;5033373;28;20736;-81
2023/04/23 11:39:39;;;;;;;22.67;9.48;;;24.40;45.00;;;;;;5034748;28;20203;-81
2023/04/23 11:42:09;;;;;;;22.30;9.50;;;24.40;45.10;;;;;;5033805;28;20265;-81
2023/04/23 11:44:38;;;;;;;21.42;9.07;;;24.40;45.10;;;;;;5032899;28;20242;-81
2023/04/23 11:47:07;;;;;;;21.75;9.52;;;24.40;45.30;;;;;;5032547;28;20690;-81
2023/04/23 11:49:34;;;;;;;18.02;8.60;;;24.40;45.30;;;;;;5033170;28;20697;-81
2023/04/23 11:52:01;;;;;;;21.40;8.63;;;24.40;45.30;;;;;;5019882;28;20220;-81
2023/04/23 11:54:29;;;;;;;19.00;8.65;;;24.40;45.30;;;;;;5036455;28;20274;-81
2023/04/23 11:56:56;;;;;;;18.65;8.38;;;24.40;45.20;;;;;;5035250;28;20215;-81
2023/04/23 11:59:23;;;;;;;17.40;7.97;;;24.40;45.20;;;;;;5035653;28;20211;-83
2023/04/23 12:01:51;;;;;;;15.05;7.78;;;24.40;45.20;;;;;;5034610;28;20242;-83
2023/04/23 12:04:21;;;;;;;18.80;8.45;;;24.40;45.10;;;;;;5033796;28;20216;-83
2023/04/23 12:06:49;;;;;;;16.17;7.70;;;24.40;45.10;;;;;;5032667;28;20196;-83
2023/04/23 12:09:17;;;;;;;16.52;7.57;;;24.40;45.10;;;;;;5033620;28;20204;-82
2023/04/23 12:11:44;;;;;;;16.73;7.63;;;24.50;45.20;;;;;;5033735;28;20224;-81
2023/04/23 12:14:12;;;;;;;18.63;7.85;;;24.50;45.20;;;;;;5033783;28;20215;-81
2023/04/23 12:16:40;;;;;;;18.85;8.02;;;24.50;45.20;;;;;;5038338;28;20196;-81
2023/04/23 12:19:12;;;;;;;18.10;7.78;;;24.50;45.20;;;;;;5038277;28;20203;-81
2023/04/23 12:21:54;;;;;;;18.73;7.00;;;24.50;45.20;;;;;;5042280;28;20247;-81
2023/04/23 12:24:22;;;;;;;14.00;7.20;;;24.40;45.20;;;;;;5043897;28;20239;-81
2023/04/23 12:26:53;;;;;;;17.13;7.47;;;24.40;45.20;;;;;;5045463;28;20196;-81
2023/04/23 12:29:20;;;;;;;14.45;7.15;;;24.40;45.20;;;;;;5041306;28;20200;-81
2023/04/23 12:31:47;;;;;;;14.25;7.20;;;24.40;45.20;;;;;;5038011;28;20208;-81
2023/04/23 12:34:15;;;;;;;18.15;7.43;;;24.40;45.30;;;;;;5037935;28;20193;-81
2023/04/23 12:36:45;;;;;;;14.55;6.53;;;24.30;45.20;;;;;;5039494;28;20235;-81
2023/04/23 12:39:24;;;;;;;13.20;6.65;;;24.40;45.30;;;;;;5039902;28;20215;-81
2023/04/23 12:41:51;;;;;;;14.90;6.72;;;24.30;45.30;;;;;;5040675;28;20216;-81
2023/04/23 12:44:18;;;;;;;14.48;6.07;;;24.30;45.20;;;;;;5041329;28;20234;-81
2023/04/23 12:46:45;;;;;;;12.38;6.22;;;24.20;45.40;;;;;;5040197;28;20257;-81